Aysenur — ERJR — position and weather

sailwx.info

Track history (hours):
 
Tides and Currents Weather Stations Pressure Air Temp Water Temp Dewpoint Dewpoint Depression Visibility Wind Speed Wind Dir Waves Ship Positions

Aysenur

Last reported at 2015-Jul-03 09:27 UTC. Time now 2015-Jul-03 20:16 UTC.
Position N 40°58' E 028°55'.

Length 79 m; draft 5.2 m.

Type: Other ship. MMSI: 214181018.

Date/timePositionNaut miles runAvg speedWind from/ knotsBaromVisibWave heightAir tempDewpointWater temp
2015-Jul-03 09:27N 40°58' E 028°55'270 7.5
2015-Jul-01 21:24N 45°18' E 030°34'8 9.0
2015-Jul-01 20:33N 45°26' E 030°37'9 9.0
2015-Jul-01 19:33N 45°34' E 030°40'9 8.9
2015-Jul-01 18:33N 45°43' E 030°43'9 8.9
2015-Jul-01 17:33N 45°52' E 030°46'59 6.6
2015-Jul-01 08:33N 46°36' E 031°44'9 8.6
2015-Jul-01 07:33N 46°39' E 031°55'8 7.9
2015-Jul-01 06:33N 46°46' E 031°53'6 6.1
2015-Jul-01 05:32N 46°52' E 031°58'0 0.0
2015-Jul-01 04:32N 46°52' E 031°58'0 0.0
2015-Jul-01 03:32N 46°52' E 031°58'0 0.0
2015-Jul-01 02:32N 46°52' E 031°58'0 0.0
2015-Jul-01 01:32N 46°52' E 031°58'0 0.0
2015-Jul-01 00:32N 46°52' E 031°58'0 0.0
2015-Jun-30 23:32N 46°52' E 031°58'0 0.0
2015-Jun-30 22:32N 46°52' E 031°58'0 0.0
2015-Jun-30 21:32N 46°52' E 031°58'0 0.0
2015-Jun-30 20:32N 46°52' E 031°58'0 0.0
2015-Jun-30 19:32N 46°52' E 031°58'0 0.4
2015-Jun-30 18:29N 46°51' E 031°59'0 0.0
2015-Jun-30 17:32N 46°51' E 031°59'0 0.0
2015-Jun-30 16:32N 46°51' E 031°59'0 0.0
2015-Jun-30 15:26N 46°51' E 031°59'0 0.0
2015-Jun-30 14:32N 46°51' E 031°59'0 0.0
2015-Jun-30 13:32N 46°51' E 031°59'0 0.0
2015-Jun-30 12:31N 46°51' E 031°59'0 0.0
2015-Jun-30 11:31N 46°51' E 031°59'0 0.0
2015-Jun-30 10:31N 46°51' E 031°59'0 0.0
2015-Jun-30 09:31N 46°51' E 031°59'0 0.0
2015-Jun-30 08:31N 46°51' E 031°59'0 0.0
2015-Jun-30 07:31N 46°51' E 031°59'0 0.0
2015-Jun-30 06:31N 46°51' E 031°59'0 0.0
2015-Jun-30 05:31N 46°51' E 031°59'0 0.0
2015-Jun-30 04:31N 46°51' E 031°59'0 0.0
2015-Jun-30 03:31N 46°51' E 031°59'0 0.0
2015-Jun-30 02:31N 46°51' E 031°59'0 0.0
2015-Jun-30 01:31N 46°51' E 031°59'0 0.0
2015-Jun-30 00:31N 46°51' E 031°59'0 0.0
2015-Jun-29 23:31N 46°51' E 031°59'0 0.0
2015-Jun-29 22:31N 46°51' E 031°59'0 0.0
2015-Jun-29 21:31N 46°51' E 031°59'0 0.0
2015-Jun-29 20:31N 46°51' E 031°59'0 0.0
2015-Jun-29 19:31N 46°51' E 031°59'0 0.0
2015-Jun-29 18:31N 46°51' E 031°59'0 0.0
2015-Jun-29 17:31N 46°51' E 031°59'0 0.0
2015-Jun-29 16:31N 46°51' E 031°59'0 0.0
2015-Jun-29 15:31N 46°51' E 031°59'0 0.0
2015-Jun-29 14:31N 46°51' E 031°59'0 0.0
2015-Jun-29 13:31N 46°51' E 031°59'0 0.0
2015-Jun-29 12:25N 46°51' E 031°59'0 0.0
2015-Jun-29 11:31N 46°51' E 031°59'0 0.0
2015-Jun-29 10:31N 46°51' E 031°59'0 0.0
2015-Jun-29 09:31N 46°51' E 031°59'0 0.0
2015-Jun-29 08:31N 46°51' E 031°59'0 0.0
2015-Jun-29 07:31N 46°51' E 031°59'0 0.0
2015-Jun-29 06:31N 46°51' E 031°59'0 0.0
2015-Jun-29 05:31N 46°51' E 031°59'0 0.0
2015-Jun-29 04:31N 46°51' E 031°59'0 0.0
2015-Jun-29 03:31N 46°51' E 031°59'0 0.0
2015-Jun-29 02:28N 46°51' E 031°59'0 0.0
2015-Jun-29 01:34N 46°51' E 031°59'0 0.0
2015-Jun-29 00:33N 46°51' E 031°59'0 0.0
2015-Jun-28 23:33N 46°51' E 031°59'0 0.0
2015-Jun-28 22:33N 46°51' E 031°59'0 0.0
2015-Jun-28 21:33N 46°51' E 031°59'0 0.0
2015-Jun-28 20:33N 46°51' E 031°59'0 0.0
2015-Jun-28 19:33N 46°51' E 031°59'0 0.0
2015-Jun-28 18:33N 46°51' E 031°59'0 0.0
2015-Jun-28 17:33N 46°51' E 031°59'0 0.0
2015-Jun-28 16:33N 46°51' E 031°59'0 0.0
2015-Jun-28 15:33N 46°51' E 031°59'0 0.0
2015-Jun-28 14:33N 46°51' E 031°59'0 0.0
2015-Jun-28 13:33N 46°51' E 031°59'0 0.0
2015-Jun-28 12:33N 46°51' E 031°59'0 0.0
2015-Jun-28 11:33N 46°51' E 031°59'0 0.0
2015-Jun-28 10:33N 46°51' E 031°59'0 0.0
2015-Jun-28 09:33N 46°51' E 031°59'0 0.0
2015-Jun-28 08:33N 46°51' E 031°59'0 0.0
2015-Jun-28 07:33N 46°51' E 031°59'0 0.0
2015-Jun-28 06:33N 46°51' E 031°59'0 0.0
2015-Jun-28 05:33N 46°51' E 031°59'0 0.0
2015-Jun-28 04:33N 46°51' E 031°59'0 0.0
2015-Jun-28 03:33N 46°51' E 031°59'0 0.0
2015-Jun-28 02:33N 46°51' E 031°59'0 0.0
2015-Jun-28 01:33N 46°51' E 031°59'0 0.0
2015-Jun-28 00:33N 46°51' E 031°59'0 0.0
2015-Jun-27 23:33N 46°51' E 031°59'0 0.0
2015-Jun-27 22:33N 46°51' E 031°59'0 0.0
2015-Jun-27 21:33N 46°51' E 031°59'0 0.0
2015-Jun-27 20:30N 46°51' E 031°59'0 0.0
2015-Jun-27 19:33N 46°51' E 031°59'0 0.0
2015-Jun-27 18:33N 46°51' E 031°59'0 0.0
2015-Jun-27 17:33N 46°51' E 031°59'0 0.0
2015-Jun-27 16:33N 46°51' E 031°59'0 0.0
2015-Jun-27 15:33N 46°51' E 031°59'0 0.0
2015-Jun-27 14:30N 46°51' E 031°59'0 0.0
2015-Jun-27 13:32N 46°51' E 031°59'0 0.0
2015-Jun-27 12:29N 46°51' E 031°59'0 0.0
2015-Jun-27 11:32N 46°51' E 031°59'0 0.0
2015-Jun-27 10:32N 46°51' E 031°59'0 0.0
2015-Jun-27 09:32N 46°51' E 031°59'0 0.0
2015-Jun-27 08:32N 46°51' E 031°59'0 0.0
2015-Jun-27 07:32N 46°51' E 031°59'0 0.0
2015-Jun-27 06:32N 46°51' E 031°59'0 0.0
2015-Jun-27 05:32N 46°51' E 031°59'0 0.0
2015-Jun-27 04:32N 46°51' E 031°59'0 0.0
2015-Jun-27 03:32N 46°51' E 031°59'0 0.0
2015-Jun-27 02:32N 46°51' E 031°59'0 0.0
2015-Jun-27 01:32N 46°51' E 031°59'0 0.0
2015-Jun-27 00:32N 46°51' E 031°59'0 0.0
2015-Jun-26 23:32N 46°51' E 031°59'0 0.0
2015-Jun-26 22:29N 46°51' E 031°59'0 0.0
2015-Jun-26 21:29N 46°51' E 031°59'0 0.0
2015-Jun-26 20:32N 46°51' E 031°59'0 0.0
2015-Jun-26 19:32N 46°51' E 031°59'0 0.0
2015-Jun-26 18:32N 46°51' E 031°59'0 0.0
2015-Jun-26 17:29N 46°51' E 031°59'0 0.0
2015-Jun-26 16:23N 46°51' E 031°59'0 0.0
2015-Jun-26 15:32N 46°51' E 031°59'0 0.0
2015-Jun-26 14:32N 46°51' E 031°59'0 0.0
2015-Jun-26 13:32N 46°51' E 031°59'0 0.0
2015-Jun-26 12:32N 46°51' E 031°59'0 0.0
2015-Jun-26 11:32N 46°51' E 031°59'0 0.0
2015-Jun-26 10:32N 46°51' E 031°59'0 0.0
2015-Jun-26 09:29N 46°51' E 031°59'0 0.0
2015-Jun-26 05:20N 46°51' E 031°59'0 0.0
2015-Jun-26 04:32N 46°51' E 031°59'0 0.0
2015-Jun-26 03:32N 46°51' E 031°59'0 0.0
2015-Jun-26 02:32N 46°51' E 031°59'0 0.0
2015-Jun-26 01:31N 46°51' E 031°59'0 0.0
2015-Jun-26 00:31N 46°51' E 031°59'0 0.0
2015-Jun-25 23:31N 46°51' E 031°59'0 0.0
2015-Jun-25 22:31N 46°51' E 031°59'0 0.0
2015-Jun-25 21:31N 46°51' E 031°59'0 0.0
2015-Jun-25 20:31N 46°51' E 031°59'0 0.0
2015-Jun-25 19:31N 46°51' E 031°59'0 0.0
2015-Jun-25 18:31N 46°51' E 031°59'0 0.0
2015-Jun-25 17:33N 46°51' E 031°59'0 0.0
2015-Jun-25 16:34N 46°51' E 031°59'0 0.0
2015-Jun-25 15:34N 46°51' E 031°59'0 0.0
2015-Jun-25 14:34N 46°51' E 031°59'2 1.9
2015-Jun-25 13:34N 46°51' E 031°56'6 5.5
2015-Jun-25 12:34N 46°45' E 031°54'8 7.8
2015-Jun-25 11:33N 46°37' E 031°53'9 8.9
2015-Jun-25 10:34N 46°35' E 031°41'355 8.9
2015-Jun-23 18:46N 40°60' E 028°60'  
Track history (hours):
 
Tides and Currents Weather Stations Pressure Air Temp Water Temp Dewpoint Dewpoint Depression Visibility Wind Speed Wind Dir Waves Ship Positions

Aysenur

Last reported at 2015-Jul-03 09:27 UTC. Time now 2015-Jul-03 20:16 UTC.
Position N 40°58' E 028°55'.

Length 79 m; draft 5.2 m.

Type: Other ship. MMSI: 214181018.

Date/timePositionNaut miles runAvg speedWind from/ knotsBaromVisibWave heightAir tempDewpointWater temp
2015-Jul-03 09:27N 40°58' E 028°55'270 7.5
2015-Jul-01 21:24N 45°18' E 030°34'8 9.0
2015-Jul-01 20:33N 45°26' E 030°37'9 9.0
2015-Jul-01 19:33N 45°34' E 030°40'9 8.9
2015-Jul-01 18:33N 45°43' E 030°43'9 8.9
2015-Jul-01 17:33N 45°52' E 030°46'59 6.6
2015-Jul-01 08:33N 46°36' E 031°44'9 8.6
2015-Jul-01 07:33N 46°39' E 031°55'8 7.9
2015-Jul-01 06:33N 46°46' E 031°53'6 6.1
2015-Jul-01 05:32N 46°52' E 031°58'0 0.0
2015-Jul-01 04:32N 46°52' E 031°58'0 0.0
2015-Jul-01 03:32N 46°52' E 031°58'0 0.0
2015-Jul-01 02:32N 46°52' E 031°58'0 0.0
2015-Jul-01 01:32N 46°52' E 031°58'0 0.0
2015-Jul-01 00:32N 46°52' E 031°58'0 0.0
2015-Jun-30 23:32N 46°52' E 031°58'0 0.0
2015-Jun-30 22:32N 46°52' E 031°58'0 0.0
2015-Jun-30 21:32N 46°52' E 031°58'0 0.0
2015-Jun-30 20:32N 46°52' E 031°58'0 0.0
2015-Jun-30 19:32N 46°52' E 031°58'0 0.4
2015-Jun-30 18:29N 46°51' E 031°59'0 0.0
2015-Jun-30 17:32N 46°51' E 031°59'0 0.0
2015-Jun-30 16:32N 46°51' E 031°59'0 0.0
2015-Jun-30 15:26N 46°51' E 031°59'0 0.0
2015-Jun-30 14:32N 46°51' E 031°59'0 0.0
2015-Jun-30 13:32N 46°51' E 031°59'0 0.0
2015-Jun-30 12:31N 46°51' E 031°59'0 0.0
2015-Jun-30 11:31N 46°51' E 031°59'0 0.0
2015-Jun-30 10:31N 46°51' E 031°59'0 0.0
2015-Jun-30 09:31N 46°51' E 031°59'0 0.0
2015-Jun-30 08:31N 46°51' E 031°59'0 0.0
2015-Jun-30 07:31N 46°51' E 031°59'0 0.0
2015-Jun-30 06:31N 46°51' E 031°59'0 0.0
2015-Jun-30 05:31N 46°51' E 031°59'0 0.0
2015-Jun-30 04:31N 46°51' E 031°59'0 0.0
2015-Jun-30 03:31N 46°51' E 031°59'0 0.0
2015-Jun-30 02:31N 46°51' E 031°59'0 0.0
2015-Jun-30 01:31N 46°51' E 031°59'0 0.0
2015-Jun-30 00:31N 46°51' E 031°59'0 0.0
2015-Jun-29 23:31N 46°51' E 031°59'0 0.0
2015-Jun-29 22:31N 46°51' E 031°59'0 0.0
2015-Jun-29 21:31N 46°51' E 031°59'0 0.0
2015-Jun-29 20:31N 46°51' E 031°59'0 0.0
2015-Jun-29 19:31N 46°51' E 031°59'0 0.0
2015-Jun-29 18:31N 46°51' E 031°59'0 0.0
2015-Jun-29 17:31N 46°51' E 031°59'0 0.0
2015-Jun-29 16:31N 46°51' E 031°59'0 0.0
2015-Jun-29 15:31N 46°51' E 031°59'0 0.0
2015-Jun-29 14:31N 46°51' E 031°59'0 0.0
2015-Jun-29 13:31N 46°51' E 031°59'0 0.0
2015-Jun-29 12:25N 46°51' E 031°59'0 0.0
2015-Jun-29 11:31N 46°51' E 031°59'0 0.0
2015-Jun-29 10:31N 46°51' E 031°59'0 0.0
2015-Jun-29 09:31N 46°51' E 031°59'0 0.0
2015-Jun-29 08:31N 46°51' E 031°59'0 0.0
2015-Jun-29 07:31N 46°51' E 031°59'0 0.0
2015-Jun-29 06:31N 46°51' E 031°59'0 0.0
2015-Jun-29 05:31N 46°51' E 031°59'0 0.0
2015-Jun-29 04:31N 46°51' E 031°59'0 0.0
2015-Jun-29 03:31N 46°51' E 031°59'0 0.0
2015-Jun-29 02:28N 46°51' E 031°59'0 0.0
2015-Jun-29 01:34N 46°51' E 031°59'0 0.0
2015-Jun-29 00:33N 46°51' E 031°59'0 0.0
2015-Jun-28 23:33N 46°51' E 031°59'0 0.0
2015-Jun-28 22:33N 46°51' E 031°59'0 0.0
2015-Jun-28 21:33N 46°51' E 031°59'0 0.0
2015-Jun-28 20:33N 46°51' E 031°59'0 0.0
2015-Jun-28 19:33N 46°51' E 031°59'0 0.0
2015-Jun-28 18:33N 46°51' E 031°59'0 0.0
2015-Jun-28 17:33N 46°51' E 031°59'0 0.0
2015-Jun-28 16:33N 46°51' E 031°59'0 0.0
2015-Jun-28 15:33N 46°51' E 031°59'0 0.0
2015-Jun-28 14:33N 46°51' E 031°59'0 0.0
2015-Jun-28 13:33N 46°51' E 031°59'0 0.0
2015-Jun-28 12:33N 46°51' E 031°59'0 0.0
2015-Jun-28 11:33N 46°51' E 031°59'0 0.0
2015-Jun-28 10:33N 46°51' E 031°59'0 0.0
2015-Jun-28 09:33N 46°51' E 031°59'0 0.0
2015-Jun-28 08:33N 46°51' E 031°59'0 0.0
2015-Jun-28 07:33N 46°51' E 031°59'0 0.0
2015-Jun-28 06:33N 46°51' E 031°59'0 0.0
2015-Jun-28 05:33N 46°51' E 031°59'0 0.0
2015-Jun-28 04:33N 46°51' E 031°59'0 0.0
2015-Jun-28 03:33N 46°51' E 031°59'0 0.0
2015-Jun-28 02:33N 46°51' E 031°59'0 0.0
2015-Jun-28 01:33N 46°51' E 031°59'0 0.0
2015-Jun-28 00:33N 46°51' E 031°59'0 0.0
2015-Jun-27 23:33N 46°51' E 031°59'0 0.0
2015-Jun-27 22:33N 46°51' E 031°59'0 0.0
2015-Jun-27 21:33N 46°51' E 031°59'0 0.0
2015-Jun-27 20:30N 46°51' E 031°59'0 0.0
2015-Jun-27 19:33N 46°51' E 031°59'0 0.0
2015-Jun-27 18:33N 46°51' E 031°59'0 0.0
2015-Jun-27 17:33N 46°51' E 031°59'0 0.0
2015-Jun-27 16:33N 46°51' E 031°59'0 0.0
2015-Jun-27 15:33N 46°51' E 031°59'0 0.0
2015-Jun-27 14:30N 46°51' E 031°59'0 0.0
2015-Jun-27 13:32N 46°51' E 031°59'0 0.0
2015-Jun-27 12:29N 46°51' E 031°59'0 0.0
2015-Jun-27 11:32N 46°51' E 031°59'0 0.0
2015-Jun-27 10:32N 46°51' E 031°59'0 0.0
2015-Jun-27 09:32N 46°51' E 031°59'0 0.0
2015-Jun-27 08:32N 46°51' E 031°59'0 0.0
2015-Jun-27 07:32N 46°51' E 031°59'0 0.0
2015-Jun-27 06:32N 46°51' E 031°59'0 0.0
2015-Jun-27 05:32N 46°51' E 031°59'0 0.0
2015-Jun-27 04:32N 46°51' E 031°59'0 0.0
2015-Jun-27 03:32N 46°51' E 031°59'0 0.0
2015-Jun-27 02:32N 46°51' E 031°59'0 0.0
2015-Jun-27 01:32N 46°51' E 031°59'0 0.0
2015-Jun-27 00:32N 46°51' E 031°59'0 0.0
2015-Jun-26 23:32N 46°51' E 031°59'0 0.0
2015-Jun-26 22:29N 46°51' E 031°59'0 0.0
2015-Jun-26 21:29N 46°51' E 031°59'0 0.0
2015-Jun-26 20:32N 46°51' E 031°59'0 0.0
2015-Jun-26 19:32N 46°51' E 031°59'0 0.0
2015-Jun-26 18:32N 46°51' E 031°59'0 0.0
2015-Jun-26 17:29N 46°51' E 031°59'0 0.0
2015-Jun-26 16:23N 46°51' E 031°59'0 0.0
2015-Jun-26 15:32N 46°51' E 031°59'0 0.0
2015-Jun-26 14:32N 46°51' E 031°59'0 0.0
2015-Jun-26 13:32N 46°51' E 031°59'0 0.0
2015-Jun-26 12:32N 46°51' E 031°59'0 0.0
2015-Jun-26 11:32N 46°51' E 031°59'0 0.0
2015-Jun-26 10:32N 46°51' E 031°59'0 0.0
2015-Jun-26 09:29N 46°51' E 031°59'0 0.0
2015-Jun-26 05:20N 46°51' E 031°59'0 0.0
2015-Jun-26 04:32N 46°51' E 031°59'0 0.0
2015-Jun-26 03:32N 46°51' E 031°59'0 0.0
2015-Jun-26 02:32N 46°51' E 031°59'0 0.0
2015-Jun-26 01:31N 46°51' E 031°59'0 0.0
2015-Jun-26 00:31N 46°51' E 031°59'0 0.0
2015-Jun-25 23:31N 46°51' E 031°59'0 0.0
2015-Jun-25 22:31N 46°51' E 031°59'0 0.0
2015-Jun-25 21:31N 46°51' E 031°59'0 0.0
2015-Jun-25 20:31N 46°51' E 031°59'0 0.0
2015-Jun-25 19:31N 46°51' E 031°59'0 0.0
2015-Jun-25 18:31N 46°51' E 031°59'0 0.0
2015-Jun-25 17:33N 46°51' E 031°59'0 0.0
2015-Jun-25 16:34N 46°51' E 031°59'0 0.0
2015-Jun-25 15:34N 46°51' E 031°59'0 0.0
2015-Jun-25 14:34N 46°51' E 031°59'2 1.9
2015-Jun-25 13:34N 46°51' E 031°56'6 5.5
2015-Jun-25 12:34N 46°45' E 031°54'8 7.8
2015-Jun-25 11:33N 46°37' E 031°53'9 8.9
2015-Jun-25 10:34N 46°35' E 031°41'355 8.9
2015-Jun-23 18:46N 40°60' E 028°60'  

Dump ship's entire track history